sensor_id;sensor_type;location;lat;lon;timestamp;temperature;humidity
314;DHT22;143;51.634;7.112;2024-01-07T00:00:28;4.40;1.00
314;DHT22;143;51.634;7.112;2024-01-07T00:02:55;4.30;1.00
314;DHT22;143;51.634;7.112;2024-01-07T00:05:20;4.40;1.00
314;DHT22;143;51.634;7.112;2024-01-07T00:07:46;4.40;1.00
314;DHT22;143;51.634;7.112;2024-01-07T00:10:13;4.40;1.00
314;DHT22;143;51.634;7.112;2024-01-07T00:12:39;4.40;1.00
314;DHT22;143;51.634;7.112;2024-01-07T00:15:05;4.40;1.00
314;DHT22;143;51.634;7.112;2024-01-07T00:17:30;4.40;1.00
314;DHT22;143;51.634;7.112;2024-01-07T00:19:56;4.60;1.00
314;DHT22;143;51.634;7.112;2024-01-07T00:22:21;4.30;1.00
314;DHT22;143;51.634;7.112;2024-01-07T00:24:47;4.40;1.00
314;DHT22;143;51.634;7.112;2024-01-07T00:27:12;4.40;1.00
314;DHT22;143;51.634;7.112;2024-01-07T00:29:38;4.40;1.00
314;DHT22;143;51.634;7.112;2024-01-07T00:32:04;4.20;1.00
314;DHT22;143;51.634;7.112;2024-01-07T00:34:29;4.60;1.00
314;DHT22;143;51.634;7.112;2024-01-07T00:36:55;4.50;1.00
314;DHT22;143;51.634;7.112;2024-01-07T00:39:21;4.40;1.00
314;DHT22;143;51.634;7.112;2024-01-07T00:41:46;4.40;1.00
314;DHT22;143;51.634;7.112;2024-01-07T00:44:12;4.40;1.00
314;DHT22;143;51.634;7.112;2024-01-07T00:46:38;4.50;1.00
314;DHT22;143;51.634;7.112;2024-01-07T00:49:03;4.40;1.00
314;DHT22;143;51.634;7.112;2024-01-07T00:51:29;4.40;1.00
314;DHT22;143;51.634;7.112;2024-01-07T00:53:54;4.20;1.00
314;DHT22;143;51.634;7.112;2024-01-07T00:56:20;4.20;1.00
314;DHT22;143;51.634;7.112;2024-01-07T00:58:45;4.30;1.00
314;DHT22;143;51.634;7.112;2024-01-07T01:01:11;4.40;1.00
314;DHT22;143;51.634;7.112;2024-01-07T01:03:37;4.10;1.00
314;DHT22;143;51.634;7.112;2024-01-07T01:06:03;4.30;1.00
314;DHT22;143;51.634;7.112;2024-01-07T01:08:28;4.30;1.00
314;DHT22;143;51.634;7.112;2024-01-07T01:10:54;4.20;1.00
314;DHT22;143;51.634;7.112;2024-01-07T01:13:19;4.00;1.00
314;DHT22;143;51.634;7.112;2024-01-07T01:15:45;4.20;1.00
314;DHT22;143;51.634;7.112;2024-01-07T01:18:11;4.10;1.00
314;DHT22;143;51.634;7.112;2024-01-07T01:20:36;4.00;1.00
314;DHT22;143;51.634;7.112;2024-01-07T01:23:02;4.20;1.00
314;DHT22;143;51.634;7.112;2024-01-07T01:25:27;4.20;1.00
314;DHT22;143;51.634;7.112;2024-01-07T01:27:55;4.10;1.00
314;DHT22;143;51.634;7.112;2024-01-07T01:30:21;4.20;1.00
314;DHT22;143;51.634;7.112;2024-01-07T01:32:46;4.10;1.00
314;DHT22;143;51.634;7.112;2024-01-07T01:35:12;4.00;1.00
314;DHT22;143;51.634;7.112;2024-01-07T01:37:37;4.10;1.00
314;DHT22;143;51.634;7.112;2024-01-07T01:40:04;4.10;1.00
314;DHT22;143;51.634;7.112;2024-01-07T01:42:29;4.00;1.00
314;DHT22;143;51.634;7.112;2024-01-07T01:44:55;4.10;1.00
314;DHT22;143;51.634;7.112;2024-01-07T01:47:24;4.20;1.00
314;DHT22;143;51.634;7.112;2024-01-07T01:49:50;4.00;1.00
314;DHT22;143;51.634;7.112;2024-01-07T01:52:16;4.10;1.00
314;DHT22;143;51.634;7.112;2024-01-07T01:54:41;4.10;1.00
314;DHT22;143;51.634;7.112;2024-01-07T01:57:09;3.90;1.00
314;DHT22;143;51.634;7.112;2024-01-07T01:59:39;3.90;1.00
314;DHT22;143;51.634;7.112;2024-01-07T02:02:05;4.00;1.00
314;DHT22;143;51.634;7.112;2024-01-07T02:04:30;3.70;1.00
314;DHT22;143;51.634;7.112;2024-01-07T02:06:56;3.80;1.00
314;DHT22;143;51.634;7.112;2024-01-07T02:09:21;3.90;1.00
314;DHT22;143;51.634;7.112;2024-01-07T02:12:19;4.00;1.00
314;DHT22;143;51.634;7.112;2024-01-07T02:14:45;4.00;1.00
314;DHT22;143;51.634;7.112;2024-01-07T02:17:10;3.90;1.00
314;DHT22;143;51.634;7.112;2024-01-07T02:19:36;3.80;1.00
314;DHT22;143;51.634;7.112;2024-01-07T02:22:01;3.80;1.00
314;DHT22;143;51.634;7.112;2024-01-07T02:24:27;3.80;1.00
314;DHT22;143;51.634;7.112;2024-01-07T02:26:52;3.90;1.00
314;DHT22;143;51.634;7.112;2024-01-07T02:29:18;3.90;1.00
314;DHT22;143;51.634;7.112;2024-01-07T02:31:43;3.80;1.00
314;DHT22;143;51.634;7.112;2024-01-07T02:34:10;3.60;1.00
314;DHT22;143;51.634;7.112;2024-01-07T02:36:36;3.90;1.00
314;DHT22;143;51.634;7.112;2024-01-07T02:39:01;3.70;1.00
314;DHT22;143;51.634;7.112;2024-01-07T02:41:27;3.90;1.00
314;DHT22;143;51.634;7.112;2024-01-07T02:43:52;3.60;1.00
314;DHT22;143;51.634;7.112;2024-01-07T02:46:19;3.80;1.00
314;DHT22;143;51.634;7.112;2024-01-07T02:48:45;3.80;1.00
314;DHT22;143;51.634;7.112;2024-01-07T02:51:10;4.00;1.00
314;DHT22;143;51.634;7.112;2024-01-07T02:53:36;3.60;1.00
314;DHT22;143;51.634;7.112;2024-01-07T02:56:01;3.90;1.00
314;DHT22;143;51.634;7.112;2024-01-07T02:58:27;3.70;1.00
314;DHT22;143;51.634;7.112;2024-01-07T03:00:52;3.90;1.00
314;DHT22;143;51.634;7.112;2024-01-07T03:03:18;3.70;1.00
314;DHT22;143;51.634;7.112;2024-01-07T03:05:43;3.90;1.00
314;DHT22;143;51.634;7.112;2024-01-07T03:08:09;3.70;1.00
314;DHT22;143;51.634;7.112;2024-01-07T03:10:34;3.90;1.00
314;DHT22;143;51.634;7.112;2024-01-07T03:13:00;3.70;1.00
314;DHT22;143;51.634;7.112;2024-01-07T03:15:26;3.90;1.00
314;DHT22;143;51.634;7.112;2024-01-07T03:17:52;3.70;1.00
314;DHT22;143;51.634;7.112;2024-01-07T03:20:17;3.60;1.00
314;DHT22;143;51.634;7.112;2024-01-07T03:22:43;3.50;1.00
314;DHT22;143;51.634;7.112;2024-01-07T03:25:08;3.60;1.00
314;DHT22;143;51.634;7.112;2024-01-07T03:27:34;3.60;1.00
314;DHT22;143;51.634;7.112;2024-01-07T03:30:00;3.40;1.00
314;DHT22;143;51.634;7.112;2024-01-07T03:32:25;3.30;1.00
314;DHT22;143;51.634;7.112;2024-01-07T03:34:51;3.40;1.00
314;DHT22;143;51.634;7.112;2024-01-07T03:37:17;3.30;1.00
314;DHT22;143;51.634;7.112;2024-01-07T03:39:43;3.20;1.00
314;DHT22;143;51.634;7.112;2024-01-07T03:42:09;3.10;1.00
314;DHT22;143;51.634;7.112;2024-01-07T03:44:37;3.10;1.00
314;DHT22;143;51.634;7.112;2024-01-07T03:47:04;3.10;1.00
314;DHT22;143;51.634;7.112;2024-01-07T03:49:30;3.10;1.00
314;DHT22;143;51.634;7.112;2024-01-07T03:51:55;3.20;1.00
314;DHT22;143;51.634;7.112;2024-01-07T03:54:21;3.40;1.00
314;DHT22;143;51.634;7.112;2024-01-07T03:56:46;3.40;1.00
314;DHT22;143;51.634;7.112;2024-01-07T03:59:12;3.20;1.00
314;DHT22;143;51.634;7.112;2024-01-07T04:01:37;3.10;1.00
314;DHT22;143;51.634;7.112;2024-01-07T04:04:03;3.10;1.00
314;DHT22;143;51.634;7.112;2024-01-07T04:06:29;3.10;1.00
314;DHT22;143;51.634;7.112;2024-01-07T04:08:54;3.20;1.00
314;DHT22;143;51.634;7.112;2024-01-07T04:11:20;3.10;1.00
314;DHT22;143;51.634;7.112;2024-01-07T04:13:45;3.10;1.00
314;DHT22;143;51.634;7.112;2024-01-07T04:16:18;3.20;1.00
314;DHT22;143;51.634;7.112;2024-01-07T04:18:44;3.00;1.00
314;DHT22;143;51.634;7.112;2024-01-07T04:21:10;3.30;1.00
314;DHT22;143;51.634;7.112;2024-01-07T04:23:35;3.20;1.00
314;DHT22;143;51.634;7.112;2024-01-07T04:26:01;3.10;1.00
314;DHT22;143;51.634;7.112;2024-01-07T04:28:26;3.10;1.00
314;DHT22;143;51.634;7.112;2024-01-07T04:30:52;3.20;1.00
314;DHT22;143;51.634;7.112;2024-01-07T04:33:17;3.10;1.00
314;DHT22;143;51.634;7.112;2024-01-07T04:35:43;3.10;1.00
314;DHT22;143;51.634;7.112;2024-01-07T04:38:08;3.40;1.00
314;DHT22;143;51.634;7.112;2024-01-07T04:40:34;3.30;1.00
314;DHT22;143;51.634;7.112;2024-01-07T04:42:59;3.20;1.00
314;DHT22;143;51.634;7.112;2024-01-07T04:45:25;3.10;1.00
314;DHT22;143;51.634;7.112;2024-01-07T04:47:51;3.20;1.00
314;DHT22;143;51.634;7.112;2024-01-07T04:50:16;3.10;1.00
314;DHT22;143;51.634;7.112;2024-01-07T04:52:45;3.10;1.00
314;DHT22;143;51.634;7.112;2024-01-07T04:55:11;3.10;1.00
314;DHT22;143;51.634;7.112;2024-01-07T04:57:38;3.10;1.00
314;DHT22;143;51.634;7.112;2024-01-07T05:00:04;3.20;1.00
314;DHT22;143;51.634;7.112;2024-01-07T05:02:30;3.10;1.00
314;DHT22;143;51.634;7.112;2024-01-07T05:04:55;3.10;1.00
314;DHT22;143;51.634;7.112;2024-01-07T05:07:21;3.10;1.00
314;DHT22;143;51.634;7.112;2024-01-07T05:09:46;3.10;1.00
314;DHT22;143;51.634;7.112;2024-01-07T05:12:12;3.20;1.00
314;DHT22;143;51.634;7.112;2024-01-07T05:14:37;3.10;1.00
314;DHT22;143;51.634;7.112;2024-01-07T05:17:03;3.10;1.00
314;DHT22;143;51.634;7.112;2024-01-07T05:19:29;3.10;1.00
314;DHT22;143;51.634;7.112;2024-01-07T05:21:55;3.10;1.00
314;DHT22;143;51.634;7.112;2024-01-07T05:24:21;3.20;1.00
314;DHT22;143;51.634;7.112;2024-01-07T05:26:47;3.30;1.00
314;DHT22;143;51.634;7.112;2024-01-07T05:29:12;3.40;1.00
314;DHT22;143;51.634;7.112;2024-01-07T05:31:39;3.30;1.00
314;DHT22;143;51.634;7.112;2024-01-07T05:34:05;3.20;1.00
314;DHT22;143;51.634;7.112;2024-01-07T05:36:31;3.40;1.00
314;DHT22;143;51.634;7.112;2024-01-07T05:38:56;3.10;1.00
314;DHT22;143;51.634;7.112;2024-01-07T05:41:22;3.20;1.00
314;DHT22;143;51.634;7.112;2024-01-07T05:43:48;3.00;1.00
314;DHT22;143;51.634;7.112;2024-01-07T05:46:13;3.00;1.00
314;DHT22;143;51.634;7.112;2024-01-07T05:48:46;3.30;1.00
314;DHT22;143;51.634;7.112;2024-01-07T05:51:12;3.10;1.00
314;DHT22;143;51.634;7.112;2024-01-07T05:53:39;3.20;1.00
314;DHT22;143;51.634;7.112;2024-01-07T05:56:04;3.10;1.00
314;DHT22;143;51.634;7.112;2024-01-07T05:58:30;3.20;1.00
314;DHT22;143;51.634;7.112;2024-01-07T06:00:56;3.10;1.00
314;DHT22;143;51.634;7.112;2024-01-07T06:03:21;3.30;1.00
314;DHT22;143;51.634;7.112;2024-01-07T06:05:47;3.10;1.00
314;DHT22;143;51.634;7.112;2024-01-07T06:08:12;3.10;1.00
314;DHT22;143;51.634;7.112;2024-01-07T06:10:38;3.20;1.00
314;DHT22;143;51.634;7.112;2024-01-07T06:13:04;3.10;1.00
314;DHT22;143;51.634;7.112;2024-01-07T06:15:30;3.00;1.00
314;DHT22;143;51.634;7.112;2024-01-07T06:17:55;3.00;1.00
314;DHT22;143;51.634;7.112;2024-01-07T06:20:21;2.90;1.00
314;DHT22;143;51.634;7.112;2024-01-07T06:22:47;2.90;1.00
314;DHT22;143;51.634;7.112;2024-01-07T06:25:12;3.00;1.00
314;DHT22;143;51.634;7.112;2024-01-07T06:27:38;2.90;1.00
314;DHT22;143;51.634;7.112;2024-01-07T06:30:05;2.80;1.00
314;DHT22;143;51.634;7.112;2024-01-07T06:32:31;2.90;1.00
314;DHT22;143;51.634;7.112;2024-01-07T06:34:58;3.10;1.00
314;DHT22;143;51.634;7.112;2024-01-07T06:37:23;2.90;1.00
314;DHT22;143;51.634;7.112;2024-01-07T06:39:49;2.90;1.00
314;DHT22;143;51.634;7.112;2024-01-07T06:42:14;3.00;1.00
314;DHT22;143;51.634;7.112;2024-01-07T06:44:40;2.90;1.00
314;DHT22;143;51.634;7.112;2024-01-07T06:47:06;3.00;1.00
314;DHT22;143;51.634;7.112;2024-01-07T06:49:31;2.90;1.00
314;DHT22;143;51.634;7.112;2024-01-07T06:51:57;3.00;1.00
314;DHT22;143;51.634;7.112;2024-01-07T06:54:22;3.10;1.00
314;DHT22;143;51.634;7.112;2024-01-07T06:56:48;2.90;1.00
314;DHT22;143;51.634;7.112;2024-01-07T06:59:13;3.00;1.00
314;DHT22;143;51.634;7.112;2024-01-07T07:01:39;2.90;1.00
314;DHT22;143;51.634;7.112;2024-01-07T07:04:05;3.10;1.00
314;DHT22;143;51.634;7.112;2024-01-07T07:06:31;2.90;1.00
314;DHT22;143;51.634;7.112;2024-01-07T07:08:56;2.70;1.00
314;DHT22;143;51.634;7.112;2024-01-07T07:11:22;2.90;1.00
314;DHT22;143;51.634;7.112;2024-01-07T07:13:47;3.00;1.00
314;DHT22;143;51.634;7.112;2024-01-07T07:16:13;3.00;1.00
314;DHT22;143;51.634;7.112;2024-01-07T07:18:38;2.80;1.00
314;DHT22;143;51.634;7.112;2024-01-07T07:21:04;2.80;1.00
314;DHT22;143;51.634;7.112;2024-01-07T07:23:30;2.80;1.00
314;DHT22;143;51.634;7.112;2024-01-07T07:25:56;2.90;1.00
314;DHT22;143;51.634;7.112;2024-01-07T07:28:21;2.90;1.00
314;DHT22;143;51.634;7.112;2024-01-07T07:30:47;2.90;1.00
314;DHT22;143;51.634;7.112;2024-01-07T07:33:12;2.90;1.00
314;DHT22;143;51.634;7.112;2024-01-07T07:35:39;2.90;1.00
314;DHT22;143;51.634;7.112;2024-01-07T07:38:06;2.60;99.90
314;DHT22;143;51.634;7.112;2024-01-07T07:40:31;2.70;99.90
314;DHT22;143;51.634;7.112;2024-01-07T07:42:57;2.60;99.90
314;DHT22;143;51.634;7.112;2024-01-07T07:45:23;2.70;99.90
314;DHT22;143;51.634;7.112;2024-01-07T07:47:48;2.60;99.90
314;DHT22;143;51.634;7.112;2024-01-07T07:50:14;2.70;99.90
314;DHT22;143;51.634;7.112;2024-01-07T07:52:42;2.60;99.90
314;DHT22;143;51.634;7.112;2024-01-07T07:55:09;2.80;99.90
314;DHT22;143;51.634;7.112;2024-01-07T07:57:35;2.70;99.90
314;DHT22;143;51.634;7.112;2024-01-07T08:00:00;2.60;99.90
314;DHT22;143;51.634;7.112;2024-01-07T08:02:26;2.70;99.90
314;DHT22;143;51.634;7.112;2024-01-07T08:04:52;2.60;99.90
314;DHT22;143;51.634;7.112;2024-01-07T08:07:17;2.70;99.90
314;DHT22;143;51.634;7.112;2024-01-07T08:09:43;2.70;99.90
314;DHT22;143;51.634;7.112;2024-01-07T08:12:09;2.40;99.90
314;DHT22;143;51.634;7.112;2024-01-07T08:14:35;2.30;99.90
314;DHT22;143;51.634;7.112;2024-01-07T08:17:01;2.40;99.90
314;DHT22;143;51.634;7.112;2024-01-07T08:19:26;2.30;99.90
314;DHT22;143;51.634;7.112;2024-01-07T08:21:52;2.40;99.90
314;DHT22;143;51.634;7.112;2024-01-07T08:24:18;2.30;99.90
314;DHT22;143;51.634;7.112;2024-01-07T08:26:44;2.40;99.90
314;DHT22;143;51.634;7.112;2024-01-07T08:29:09;2.30;99.90
314;DHT22;143;51.634;7.112;2024-01-07T08:31:35;2.40;99.90
314;DHT22;143;51.634;7.112;2024-01-07T08:34:00;2.40;99.90
314;DHT22;143;51.634;7.112;2024-01-07T08:36:26;2.40;99.90
314;DHT22;143;51.634;7.112;2024-01-07T08:38:52;2.10;99.90
314;DHT22;143;51.634;7.112;2024-01-07T08:41:17;2.50;99.90
314;DHT22;143;51.634;7.112;2024-01-07T08:43:43;2.20;99.90
314;DHT22;143;51.634;7.112;2024-01-07T08:46:10;2.30;99.90
314;DHT22;143;51.634;7.112;2024-01-07T08:48:36;2.20;99.90
314;DHT22;143;51.634;7.112;2024-01-07T08:51:02;2.30;99.90
314;DHT22;143;51.634;7.112;2024-01-07T08:53:28;2.10;99.90
314;DHT22;143;51.634;7.112;2024-01-07T08:55:54;2.20;99.90
314;DHT22;143;51.634;7.112;2024-01-07T08:58:20;2.20;99.90
314;DHT22;143;51.634;7.112;2024-01-07T09:00:45;2.00;99.90
314;DHT22;143;51.634;7.112;2024-01-07T09:03:11;2.20;99.90
314;DHT22;143;51.634;7.112;2024-01-07T09:05:37;1.80;99.90
314;DHT22;143;51.634;7.112;2024-01-07T09:08:02;2.00;99.90
314;DHT22;143;51.634;7.112;2024-01-07T09:10:28;1.70;99.90
314;DHT22;143;51.634;7.112;2024-01-07T09:12:53;1.70;99.90
314;DHT22;143;51.634;7.112;2024-01-07T09:15:19;2.00;99.90
314;DHT22;143;51.634;7.112;2024-01-07T09:17:46;2.00;99.90
314;DHT22;143;51.634;7.112;2024-01-07T09:20:12;1.90;99.90
314;DHT22;143;51.634;7.112;2024-01-07T09:22:37;1.90;99.90
314;DHT22;143;51.634;7.112;2024-01-07T09:25:03;2.00;99.90
314;DHT22;143;51.634;7.112;2024-01-07T09:27:29;1.70;99.90
314;DHT22;143;51.634;7.112;2024-01-07T09:29:55;1.70;99.90
314;DHT22;143;51.634;7.112;2024-01-07T09:32:21;2.00;99.90
314;DHT22;143;51.634;7.112;2024-01-07T09:34:46;2.00;99.90
314;DHT22;143;51.634;7.112;2024-01-07T09:37:12;2.00;99.90
314;DHT22;143;51.634;7.112;2024-01-07T09:39:41;1.70;99.90
314;DHT22;143;51.634;7.112;2024-01-07T09:42:14;1.70;99.90
314;DHT22;143;51.634;7.112;2024-01-07T09:44:41;1.80;99.90
314;DHT22;143;51.634;7.112;2024-01-07T09:47:10;1.70;99.90
314;DHT22;143;51.634;7.112;2024-01-07T09:49:37;1.80;99.90
314;DHT22;143;51.634;7.112;2024-01-07T09:52:04;1.80;99.90
314;DHT22;143;51.634;7.112;2024-01-07T09:54:31;1.70;99.90
314;DHT22;143;51.634;7.112;2024-01-07T09:57:02;1.80;99.90
314;DHT22;143;51.634;7.112;2024-01-07T09:59:29;1.70;99.90
314;DHT22;143;51.634;7.112;2024-01-07T10:01:55;1.80;99.90
314;DHT22;143;51.634;7.112;2024-01-07T10:04:21;2.00;99.90
314;DHT22;143;51.634;7.112;2024-01-07T10:06:47;1.70;99.90
314;DHT22;143;51.634;7.112;2024-01-07T10:09:15;1.90;99.90
314;DHT22;143;51.634;7.112;2024-01-07T10:11:41;1.70;99.90
314;DHT22;143;51.634;7.112;2024-01-07T10:14:07;1.70;99.90
314;DHT22;143;51.634;7.112;2024-01-07T10:16:33;1.70;99.90
314;DHT22;143;51.634;7.112;2024-01-07T10:18:58;1.70;99.90
314;DHT22;143;51.634;7.112;2024-01-07T10:21:24;1.50;99.90
314;DHT22;143;51.634;7.112;2024-01-07T10:23:50;1.70;99.90
314;DHT22;143;51.634;7.112;2024-01-07T10:26:16;1.70;99.90
314;DHT22;143;51.634;7.112;2024-01-07T10:28:42;1.70;99.90
314;DHT22;143;51.634;7.112;2024-01-07T10:31:09;1.70;99.90
314;DHT22;143;51.634;7.112;2024-01-07T10:33:34;1.80;99.90
314;DHT22;143;51.634;7.112;2024-01-07T10:36:05;1.80;99.90
314;DHT22;143;51.634;7.112;2024-01-07T10:38:32;1.70;99.90
314;DHT22;143;51.634;7.112;2024-01-07T10:40:59;1.70;99.90
314;DHT22;143;51.634;7.112;2024-01-07T10:43:26;1.70;99.90
314;DHT22;143;51.634;7.112;2024-01-07T10:45:55;1.70;99.90
314;DHT22;143;51.634;7.112;2024-01-07T10:48:21;1.90;99.90
314;DHT22;143;51.634;7.112;2024-01-07T10:50:53;2.20;99.90
314;DHT22;143;51.634;7.112;2024-01-07T10:53:21;2.00;99.90
314;DHT22;143;51.634;7.112;2024-01-07T10:55:54;2.00;99.90
314;DHT22;143;51.634;7.112;2024-01-07T10:58:20;2.10;99.90
314;DHT22;143;51.634;7.112;2024-01-07T11:00:46;2.50;99.90
314;DHT22;143;51.634;7.112;2024-01-07T11:06:33;3.00;99.90
314;DHT22;143;51.634;7.112;2024-01-07T11:09:25;3.70;99.90
314;DHT22;143;51.634;7.112;2024-01-07T11:11:52;4.30;99.90
314;DHT22;143;51.634;7.112;2024-01-07T11:14:36;5.10;1.00
314;DHT22;143;51.634;7.112;2024-01-07T11:17:03;5.10;1.00
314;DHT22;143;51.634;7.112;2024-01-07T11:19:29;5.20;1.00
314;DHT22;143;51.634;7.112;2024-01-07T11:22:23;4.70;1.00
314;DHT22;143;51.634;7.112;2024-01-07T11:24:50;4.70;1.00
314;DHT22;143;51.634;7.112;2024-01-07T11:27:16;4.50;1.00
314;DHT22;143;51.634;7.112;2024-01-07T11:29:42;4.30;1.00
314;DHT22;143;51.634;7.112;2024-01-07T11:32:07;4.50;1.00
314;DHT22;143;51.634;7.112;2024-01-07T11:34:43;5.40;1.00
314;DHT22;143;51.634;7.112;2024-01-07T11:37:12;6.10;1.00
314;DHT22;143;51.634;7.112;2024-01-07T11:39:41;7.60;1.00
314;DHT22;143;51.634;7.112;2024-01-07T11:42:07;8.90;1.00
314;DHT22;143;51.634;7.112;2024-01-07T11:44:36;10.00;1.00
314;DHT22;143;51.634;7.112;2024-01-07T11:47:05;11.00;1.00
314;DHT22;143;51.634;7.112;2024-01-07T11:49:32;11.40;1.00
314;DHT22;143;51.634;7.112;2024-01-07T11:51:58;11.60;1.00
314;DHT22;143;51.634;7.112;2024-01-07T11:54:23;12.00;1.00
314;DHT22;143;51.634;7.112;2024-01-07T11:56:49;12.00;1.00
314;DHT22;143;51.634;7.112;2024-01-07T11:59:14;11.20;1.00
314;DHT22;143;51.634;7.112;2024-01-07T12:01:40;10.60;1.00
314;DHT22;143;51.634;7.112;2024-01-07T12:04:05;10.00;1.00
314;DHT22;143;51.634;7.112;2024-01-07T12:06:31;9.20;1.00
314;DHT22;143;51.634;7.112;2024-01-07T12:08:56;8.80;1.00
314;DHT22;143;51.634;7.112;2024-01-07T12:11:22;8.30;1.00
314;DHT22;143;51.634;7.112;2024-01-07T12:13:48;7.80;1.00
314;DHT22;143;51.634;7.112;2024-01-07T12:16:15;7.10;1.00
314;DHT22;143;51.634;7.112;2024-01-07T12:18:41;6.90;1.00
314;DHT22;143;51.634;7.112;2024-01-07T12:21:07;6.00;1.00
314;DHT22;143;51.634;7.112;2024-01-07T12:23:37;5.60;1.00
314;DHT22;143;51.634;7.112;2024-01-07T12:26:10;5.20;1.00
314;DHT22;143;51.634;7.112;2024-01-07T12:28:36;4.80;1.00
314;DHT22;143;51.634;7.112;2024-01-07T12:31:03;4.60;1.00
314;DHT22;143;51.634;7.112;2024-01-07T12:33:30;4.10;1.00
314;DHT22;143;51.634;7.112;2024-01-07T12:36:00;3.90;1.00
314;DHT22;143;51.634;7.112;2024-01-07T12:38:26;3.80;1.00
314;DHT22;143;51.634;7.112;2024-01-07T12:40:53;3.40;1.00
314;DHT22;143;51.634;7.112;2024-01-07T12:43:18;3.40;1.00
314;DHT22;143;51.634;7.112;2024-01-07T12:45:44;3.30;1.00
314;DHT22;143;51.634;7.112;2024-01-07T12:48:11;2.90;1.00
314;DHT22;143;51.634;7.112;2024-01-07T12:50:37;2.60;1.00
314;DHT22;143;51.634;7.112;2024-01-07T12:53:03;2.70;1.00
314;DHT22;143;51.634;7.112;2024-01-07T12:55:28;2.40;1.00
314;DHT22;143;51.634;7.112;2024-01-07T12:57:55;2.50;1.00
314;DHT22;143;51.634;7.112;2024-01-07T13:00:20;2.30;1.00
314;DHT22;143;51.634;7.112;2024-01-07T13:02:46;1.90;1.00
314;DHT22;143;51.634;7.112;2024-01-07T13:05:12;1.90;1.00
314;DHT22;143;51.634;7.112;2024-01-07T13:07:38;1.90;1.00
314;DHT22;143;51.634;7.112;2024-01-07T13:10:04;1.90;1.00
314;DHT22;143;51.634;7.112;2024-01-07T13:12:29;2.00;1.00
314;DHT22;143;51.634;7.112;2024-01-07T13:14:55;2.00;1.00
314;DHT22;143;51.634;7.112;2024-01-07T13:17:20;1.90;1.00
314;DHT22;143;51.634;7.112;2024-01-07T13:19:46;1.70;1.00
314;DHT22;143;51.634;7.112;2024-01-07T13:22:11;1.80;1.00
314;DHT22;143;51.634;7.112;2024-01-07T13:24:37;1.60;1.00
314;DHT22;143;51.634;7.112;2024-01-07T13:27:03;1.50;1.00
314;DHT22;143;51.634;7.112;2024-01-07T13:29:29;1.50;1.00
314;DHT22;143;51.634;7.112;2024-01-07T13:31:54;1.90;1.00
314;DHT22;143;51.634;7.112;2024-01-07T13:34:20;1.70;1.00
314;DHT22;143;51.634;7.112;2024-01-07T13:36:45;1.60;1.00
314;DHT22;143;51.634;7.112;2024-01-07T13:39:12;1.90;1.00
314;DHT22;143;51.634;7.112;2024-01-07T13:41:37;1.70;1.00
314;DHT22;143;51.634;7.112;2024-01-07T13:44:03;1.70;1.00
314;DHT22;143;51.634;7.112;2024-01-07T13:46:28;1.70;1.00
314;DHT22;143;51.634;7.112;2024-01-07T13:48:54;1.70;1.00
314;DHT22;143;51.634;7.112;2024-01-07T13:51:20;1.80;1.00
314;DHT22;143;51.634;7.112;2024-01-07T13:53:45;2.00;1.00
314;DHT22;143;51.634;7.112;2024-01-07T13:56:12;1.70;1.00
314;DHT22;143;51.634;7.112;2024-01-07T13:58:38;1.80;1.00
314;DHT22;143;51.634;7.112;2024-01-07T14:01:03;1.70;1.00
314;DHT22;143;51.634;7.112;2024-01-07T14:03:30;1.70;1.00
314;DHT22;143;51.634;7.112;2024-01-07T14:05:58;1.70;1.00
314;DHT22;143;51.634;7.112;2024-01-07T14:08:23;1.90;1.00
314;DHT22;143;51.634;7.112;2024-01-07T14:10:49;1.50;1.00
314;DHT22;143;51.634;7.112;2024-01-07T14:13:14;1.50;1.00
314;DHT22;143;51.634;7.112;2024-01-07T14:15:40;1.50;1.00
314;DHT22;143;51.634;7.112;2024-01-07T14:18:05;1.50;1.00
314;DHT22;143;51.634;7.112;2024-01-07T14:20:31;1.50;1.00
314;DHT22;143;51.634;7.112;2024-01-07T14:22:57;1.50;1.00
314;DHT22;143;51.634;7.112;2024-01-07T14:25:24;1.50;1.00
314;DHT22;143;51.634;7.112;2024-01-07T14:27:49;1.40;1.00
314;DHT22;143;51.634;7.112;2024-01-07T14:30:15;1.50;1.00
314;DHT22;143;51.634;7.112;2024-01-07T14:32:41;1.50;1.00
314;DHT22;143;51.634;7.112;2024-01-07T14:35:07;1.50;1.00
314;DHT22;143;51.634;7.112;2024-01-07T14:37:32;1.50;1.00
314;DHT22;143;51.634;7.112;2024-01-07T14:39:58;1.50;1.00
314;DHT22;143;51.634;7.112;2024-01-07T14:42:23;1.50;1.00
314;DHT22;143;51.634;7.112;2024-01-07T14:44:49;1.30;1.00
314;DHT22;143;51.634;7.112;2024-01-07T14:47:15;1.30;1.00
314;DHT22;143;51.634;7.112;2024-01-07T14:49:41;1.50;1.00
314;DHT22;143;51.634;7.112;2024-01-07T14:52:06;1.40;1.00
314;DHT22;143;51.634;7.112;2024-01-07T14:54:32;1.60;1.00
314;DHT22;143;51.634;7.112;2024-01-07T14:56:58;1.50;1.00
314;DHT22;143;51.634;7.112;2024-01-07T14:59:24;1.40;1.00
314;DHT22;143;51.634;7.112;2024-01-07T15:01:49;1.40;1.00
314;DHT22;143;51.634;7.112;2024-01-07T15:04:15;1.70;1.00
314;DHT22;143;51.634;7.112;2024-01-07T15:06:42;1.50;1.00
314;DHT22;143;51.634;7.112;2024-01-07T15:09:09;1.40;1.00
314;DHT22;143;51.634;7.112;2024-01-07T15:11:35;1.70;1.00
314;DHT22;143;51.634;7.112;2024-01-07T15:14:00;1.70;1.00
314;DHT22;143;51.634;7.112;2024-01-07T15:16:33;1.50;1.00
314;DHT22;143;51.634;7.112;2024-01-07T15:18:59;1.50;1.00
314;DHT22;143;51.634;7.112;2024-01-07T15:21:24;1.70;1.00
314;DHT22;143;51.634;7.112;2024-01-07T15:23:50;1.60;1.00
314;DHT22;143;51.634;7.112;2024-01-07T15:26:16;1.50;1.00
314;DHT22;143;51.634;7.112;2024-01-07T15:28:41;1.70;1.00
314;DHT22;143;51.634;7.112;2024-01-07T15:31:08;1.70;1.00
314;DHT22;143;51.634;7.112;2024-01-07T15:33:34;1.90;1.00
314;DHT22;143;51.634;7.112;2024-01-07T15:36:02;1.70;1.00
314;DHT22;143;51.634;7.112;2024-01-07T15:38:28;1.70;1.00
314;DHT22;143;51.634;7.112;2024-01-07T15:40:54;1.70;1.00
314;DHT22;143;51.634;7.112;2024-01-07T15:43:19;2.10;1.00
314;DHT22;143;51.634;7.112;2024-01-07T15:45:45;2.00;1.00
314;DHT22;143;51.634;7.112;2024-01-07T15:48:11;1.80;1.00
314;DHT22;143;51.634;7.112;2024-01-07T15:50:36;1.80;1.00
314;DHT22;143;51.634;7.112;2024-01-07T15:53:02;1.70;1.00
314;DHT22;143;51.634;7.112;2024-01-07T15:55:28;1.70;1.00
314;DHT22;143;51.634;7.112;2024-01-07T15:57:53;1.70;1.00
314;DHT22;143;51.634;7.112;2024-01-07T16:00:19;1.70;1.00
314;DHT22;143;51.634;7.112;2024-01-07T16:02:45;1.80;1.00
314;DHT22;143;51.634;7.112;2024-01-07T16:05:13;2.00;1.00
314;DHT22;143;51.634;7.112;2024-01-07T16:07:39;1.80;1.00
314;DHT22;143;51.634;7.112;2024-01-07T16:10:05;1.80;1.00
314;DHT22;143;51.634;7.112;2024-01-07T16:12:31;2.10;1.00
314;DHT22;143;51.634;7.112;2024-01-07T16:14:57;1.70;1.00
314;DHT22;143;51.634;7.112;2024-01-07T16:17:23;1.70;1.00
314;DHT22;143;51.634;7.112;2024-01-07T16:19:49;1.70;1.00
314;DHT22;143;51.634;7.112;2024-01-07T16:22:14;1.80;1.00
314;DHT22;143;51.634;7.112;2024-01-07T16:24:40;1.90;1.00
314;DHT22;143;51.634;7.112;2024-01-07T16:27:07;2.20;1.00
314;DHT22;143;51.634;7.112;2024-01-07T16:29:33;2.00;1.00
314;DHT22;143;51.634;7.112;2024-01-07T16:31:59;2.20;1.00
314;DHT22;143;51.634;7.112;2024-01-07T16:34:24;1.90;1.00
314;DHT22;143;51.634;7.112;2024-01-07T16:36:50;2.10;1.00
314;DHT22;143;51.634;7.112;2024-01-07T16:39:15;2.10;1.00
314;DHT22;143;51.634;7.112;2024-01-07T16:41:41;1.90;1.00
314;DHT22;143;51.634;7.112;2024-01-07T16:44:07;2.10;1.00
314;DHT22;143;51.634;7.112;2024-01-07T16:46:34;2.00;1.00
314;DHT22;143;51.634;7.112;2024-01-07T16:49:00;2.20;1.00
314;DHT22;143;51.634;7.112;2024-01-07T16:51:26;1.90;1.00
314;DHT22;143;51.634;7.112;2024-01-07T16:53:51;2.20;1.00
314;DHT22;143;51.634;7.112;2024-01-07T16:56:17;2.00;1.00
314;DHT22;143;51.634;7.112;2024-01-07T16:58:43;1.90;1.00
314;DHT22;143;51.634;7.112;2024-01-07T17:01:08;2.20;1.00